Time;durP1;ratioP1;P1;durP2;ratioP2;P2;SDS_P1;SDS_P2;PMS_P1;PMS_P2;Temp;Humidity;BMP_temperature;BMP_pressure;BME280_temperature;BME280_humidity;BME280_pressure;Samples;Min_cycle;Max_cycle;Signal;HPM_P1;HPM_P2
2023/09/25 00:01:27;;;;;;;9.73;8.68;;;;;;;;;;4998101;28;20054;-75
2023/09/25 00:03:56;;;;;;;9.52;8.93;;;;;;;;;;4979605;28;20039;-74
2023/09/25 00:06:24;;;;;;;9.35;8.65;;;;;;;;;;4974225;28;20462;-75
2023/09/25 00:08:53;;;;;;;9.07;8.48;;;;;;;;;;4990272;28;20039;-76
2023/09/25 00:11:26;;;;;;;8.65;8.07;;;;;;;;;;5002139;28;20026;-74
2023/09/25 00:13:53;;;;;;;8.80;8.20;;;;;;;;;;4970373;28;20520;-73
2023/09/25 00:16:19;;;;;;;9.27;8.60;;;;;;;;;;4965476;28;20042;-76
2023/09/25 00:18:47;;;;;;;9.50;8.70;;;;;;;;;;4970241;28;20035;-76
2023/09/25 00:21:14;;;;;;;9.43;8.63;;;;;;;;;;4985774;28;20041;-73
2023/09/25 00:23:40;;;;;;;8.98;8.38;;;;;;;;;;4966128;28;20781;-76
2023/09/25 00:26:07;;;;;;;9.05;8.27;;;;;;;;;;4969050;28;20073;-76
2023/09/25 00:28:45;;;;;;;9.70;9.00;;;;;;;;;;4970170;28;20034;-76
2023/09/25 00:31:14;;;;;;;8.88;8.25;;;;;;;;;;4965286;28;20034;-76
2023/09/25 00:33:39;;;;;;;8.85;8.35;;;;;;;;;;4989502;28;20034;-74
2023/09/25 00:36:05;;;;;;;9.40;8.70;;;;;;;;;;4975444;28;20035;-76
2023/09/25 00:38:31;;;;;;;8.73;8.13;;;;;;;;;;4998705;28;20039;-76
2023/09/25 00:40:57;;;;;;;9.27;8.68;;;;;;;;;;4967212;28;20034;-75
2023/09/25 00:43:23;;;;;;;9.65;8.95;;;;;;;;;;4967666;28;20128;-76
2023/09/25 00:45:49;;;;;;;9.10;8.50;;;;;;;;;;4968426;28;20045;-76
2023/09/25 00:48:29;;;;;;;8.60;8.00;;;;;;;;;;4975094;28;20074;-75
2023/09/25 00:51:00;;;;;;;8.82;8.23;;;;;;;;;;4965670;28;20054;-75
2023/09/25 00:53:27;;;;;;;9.35;8.45;;;;;;;;;;5001333;28;20042;-76
2023/09/25 00:55:56;;;;;;;8.52;8.02;;;;;;;;;;4967896;28;20222;-74
2023/09/25 00:58:25;;;;;;;8.70;7.90;;;;;;;;;;4967022;28;20034;-76
2023/09/25 01:00:52;;;;;;;8.88;8.32;;;;;;;;;;4970416;28;20030;-75
2023/09/25 01:03:18;;;;;;;9.88;8.85;;;;;;;;;;4993458;28;20748;-75
2023/09/25 01:05:51;;;;;;;8.50;7.90;;;;;;;;;;4961266;28;20039;-75
2023/09/25 01:08:35;;;;;;;9.07;8.38;;;;;;;;;;4947641;28;20554;-76
2023/09/25 01:11:02;;;;;;;8.98;8.30;;;;;;;;;;4968042;28;20030;-74
2023/09/25 01:13:28;;;;;;;9.20;8.55;;;;;;;;;;4968508;28;20031;-74
2023/09/25 01:15:54;;;;;;;9.13;8.43;;;;;;;;;;4966963;28;20052;-76
2023/09/25 01:18:20;;;;;;;9.18;8.38;;;;;;;;;;4967774;28;20396;-76
2023/09/25 01:20:46;;;;;;;8.57;7.97;;;;;;;;;;4964383;28;20049;-75
2023/09/25 01:23:12;;;;;;;9.10;8.40;;;;;;;;;;4966647;28;20035;-75
2023/09/25 01:25:39;;;;;;;9.00;8.35;;;;;;;;;;4967117;28;20058;-75
2023/09/25 01:28:05;;;;;;;9.20;8.52;;;;;;;;;;4967134;28;20049;-75
2023/09/25 01:30:31;;;;;;;8.77;8.07;;;;;;;;;;4966933;28;20456;-75
2023/09/25 01:32:57;;;;;;;8.70;8.15;;;;;;;;;;4966268;28;20094;-76
2023/09/25 01:35:25;;;;;;;9.45;8.63;;;;;;;;;;4965110;28;20042;-75
2023/09/25 01:37:59;;;;;;;9.15;8.35;;;;;;;;;;4970455;28;20042;-75
2023/09/25 01:40:25;;;;;;;9.85;8.95;;;;;;;;;;4977621;28;20038;-75
2023/09/25 01:42:51;;;;;;;9.80;8.95;;;;;;;;;;4966290;28;20038;-75
2023/09/25 01:45:19;;;;;;;9.85;9.05;;;;;;;;;;4963777;28;20034;-75
2023/09/25 01:47:50;;;;;;;9.30;8.60;;;;;;;;;;4966427;28;20038;-75
2023/09/25 01:50:17;;;;;;;9.43;8.63;;;;;;;;;;4964323;28;20074;-75
2023/09/25 01:52:45;;;;;;;9.50;8.80;;;;;;;;;;4970310;28;20042;-75
2023/09/25 01:55:11;;;;;;;9.15;8.55;;;;;;;;;;4981376;28;20042;-75
2023/09/25 01:57:36;;;;;;;8.90;8.13;;;;;;;;;;4964296;28;20042;-76
2023/09/25 02:00:09;;;;;;;9.48;8.50;;;;;;;;;;4977241;28;20047;-76
2023/09/25 02:02:37;;;;;;;9.25;8.55;;;;;;;;;;4980786;28;20037;-75
2023/09/25 02:05:03;;;;;;;9.80;9.00;;;;;;;;;;4966054;28;20047;-75
2023/09/25 02:07:29;;;;;;;9.38;8.75;;;;;;;;;;4963923;28;20477;-74
2023/09/25 02:09:55;;;;;;;9.73;9.02;;;;;;;;;;4964679;28;20030;-75
2023/09/25 02:12:20;;;;;;;9.63;8.93;;;;;;;;;;4963286;28;20035;-76
2023/09/25 02:14:47;;;;;;;9.57;8.88;;;;;;;;;;5000421;28;20058;-74
2023/09/25 02:17:14;;;;;;;10.02;9.15;;;;;;;;;;4971184;28;20031;-75
2023/09/25 02:19:39;;;;;;;9.65;8.90;;;;;;;;;;4984563;28;20034;-75
2023/09/25 02:22:06;;;;;;;9.00;8.35;;;;;;;;;;4974496;28;20031;-77
2023/09/25 02:24:35;;;;;;;9.27;8.57;;;;;;;;;;4964959;28;20038;-75
2023/09/25 02:27:01;;;;;;;9.55;8.85;;;;;;;;;;4993154;28;20042;-76
2023/09/25 02:29:26;;;;;;;9.10;8.50;;;;;;;;;;4963552;28;20142;-75
2023/09/25 02:31:53;;;;;;;9.82;9.13;;;;;;;;;;4965956;28;20031;-75
2023/09/25 02:34:18;;;;;;;9.77;9.07;;;;;;;;;;4972471;28;20079;-75
2023/09/25 02:36:44;;;;;;;9.90;9.10;;;;;;;;;;4964600;28;20077;-75
2023/09/25 02:39:10;;;;;;;9.82;9.13;;;;;;;;;;4956525;28;20042;-75
2023/09/25 02:41:36;;;;;;;9.57;8.80;;;;;;;;;;4965438;28;20077;-76
2023/09/25 02:44:01;;;;;;;10.35;9.45;;;;;;;;;;4966227;28;20439;-75
2023/09/25 02:46:27;;;;;;;10.00;9.07;;;;;;;;;;4977120;28;20682;-74
2023/09/25 02:48:52;;;;;;;10.02;9.23;;;;;;;;;;4957604;28;20396;-75
2023/09/25 02:51:18;;;;;;;10.35;9.45;;;;;;;;;;4967566;28;20031;-74
2023/09/25 02:53:45;;;;;;;9.73;9.02;;;;;;;;;;4956002;28;20042;-74
2023/09/25 02:56:11;;;;;;;9.73;9.02;;;;;;;;;;4993903;28;20035;-75
2023/09/25 02:58:37;;;;;;;9.90;9.20;;;;;;;;;;4996403;28;20034;-75
2023/09/25 03:01:03;;;;;;;10.02;8.88;;;;;;;;;;4971733;28;20357;-74
2023/09/25 03:03:29;;;;;;;9.38;8.65;;;;;;;;;;4980366;28;20033;-74
2023/09/25 03:05:55;;;;;;;9.95;9.10;;;;;;;;;;4974260;28;20122;-75
2023/09/25 03:08:21;;;;;;;9.35;8.55;;;;;;;;;;4972269;28;20047;-78
2023/09/25 03:10:47;;;;;;;9.60;8.80;;;;;;;;;;4974892;28;20118;-74
2023/09/25 03:13:12;;;;;;;9.18;8.38;;;;;;;;;;4975283;28;20127;-75
2023/09/25 03:15:39;;;;;;;10.30;9.40;;;;;;;;;;4964699;28;20036;-74
2023/09/25 03:18:05;;;;;;;8.85;8.20;;;;;;;;;;4962390;28;20475;-76
2023/09/25 03:20:30;;;;;;;9.57;8.85;;;;;;;;;;4967451;28;20110;-76
2023/09/25 03:22:56;;;;;;;9.90;9.10;;;;;;;;;;4965085;28;20110;-78
2023/09/25 03:25:22;;;;;;;9.52;8.63;;;;;;;;;;4964194;28;20374;-77
2023/09/25 03:27:49;;;;;;;8.75;8.15;;;;;;;;;;4957356;28;20046;-76
2023/09/25 03:30:16;;;;;;;9.35;8.55;;;;;;;;;;4961902;28;20046;-76
2023/09/25 03:32:43;;;;;;;9.52;8.63;;;;;;;;;;4998760;28;20097;-76
2023/09/25 03:35:10;;;;;;;9.70;8.90;;;;;;;;;;4955659;28;20038;-77
2023/09/25 03:37:36;;;;;;;10.43;9.27;;;;;;;;;;4962138;28;20046;-76
2023/09/25 03:40:07;;;;;;;9.88;9.07;;;;;;;;;;4940716;28;20049;-76
2023/09/25 03:42:33;;;;;;;10.20;9.40;;;;;;;;;;4995650;28;20441;-77
2023/09/25 03:45:01;;;;;;;9.87;9.07;;;;;;;;;;4972085;28;20034;-76
2023/09/25 03:47:27;;;;;;;9.82;9.07;;;;;;;;;;4969503;28;20038;-77
2023/09/25 03:49:55;;;;;;;9.85;8.95;;;;;;;;;;4959668;28;20499;-77
2023/09/25 03:52:20;;;;;;;9.52;8.82;;;;;;;;;;4965565;28;20022;-75
2023/09/25 03:54:46;;;;;;;9.77;8.88;;;;;;;;;;4974490;28;20507;-75
2023/09/25 03:57:12;;;;;;;9.95;9.05;;;;;;;;;;4967272;28;20042;-76
2023/09/25 03:59:37;;;;;;;9.93;9.02;;;;;;;;;;4964625;28;20066;-75
2023/09/25 04:02:03;;;;;;;10.25;9.25;;;;;;;;;;4967281;28;20030;-76
2023/09/25 04:04:28;;;;;;;9.93;9.02;;;;;;;;;;4964655;28;20077;-75
2023/09/25 04:06:54;;;;;;;10.38;9.43;;;;;;;;;;4965629;28;20042;-77
2023/09/25 04:09:20;;;;;;;10.35;9.48;;;;;;;;;;4964063;28;20077;-76
2023/09/25 04:11:46;;;;;;;9.90;9.20;;;;;;;;;;4965395;28;20030;-76
2023/09/25 04:14:11;;;;;;;9.70;9.00;;;;;;;;;;4964507;28;20401;-75
2023/09/25 04:16:38;;;;;;;11.45;10.45;;;;;;;;;;4954928;28;20141;-75
2023/09/25 04:19:04;;;;;;;11.48;10.38;;;;;;;;;;4962906;28;20037;-76
2023/09/25 04:21:31;;;;;;;10.50;9.60;;;;;;;;;;4976770;28;20027;-74
2023/09/25 04:24:00;;;;;;;11.55;10.43;;;;;;;;;;4962144;28;20034;-74
2023/09/25 04:26:25;;;;;;;12.15;9.50;;;;;;;;;;4962612;28;20034;-75
2023/09/25 04:28:51;;;;;;;10.57;9.68;;;;;;;;;;4959340;28;20415;-74
2023/09/25 04:31:16;;;;;;;11.13;10.05;;;;;;;;;;4962413;28;20038;-76
2023/09/25 04:33:42;;;;;;;10.38;9.57;;;;;;;;;;4964036;28;20124;-74
2023/09/25 04:36:10;;;;;;;12.32;11.02;;;;;;;;;;4963863;28;20640;-74
2023/09/25 04:38:36;;;;;;;11.65;10.57;;;;;;;;;;4964084;28;20038;-76
2023/09/25 04:41:03;;;;;;;10.20;9.25;;;;;;;;;;4965324;28;20488;-76
2023/09/25 04:43:28;;;;;;;10.70;9.70;;;;;;;;;;4965457;28;20988;-76
2023/09/25 04:45:55;;;;;;;11.38;9.73;;;;;;;;;;4980154;28;20109;-76
2023/09/25 04:48:21;;;;;;;11.57;10.57;;;;;;;;;;4969119;28;20110;-75
2023/09/25 04:50:48;;;;;;;10.45;9.65;;;;;;;;;;4973346;28;20058;-78
2023/09/25 04:53:14;;;;;;;11.60;10.70;;;;;;;;;;4981268;28;20600;-75
2023/09/25 04:55:40;;;;;;;11.75;10.75;;;;;;;;;;4994032;28;20034;-74
2023/09/25 04:58:06;;;;;;;14.45;10.60;;;;;;;;;;4964903;28;20069;-77
2023/09/25 05:00:32;;;;;;;11.02;10.02;;;;;;;;;;4967602;28;20038;-77
2023/09/25 05:02:59;;;;;;;11.18;10.13;;;;;;;;;;4963303;28;20532;-76
2023/09/25 05:05:26;;;;;;;11.55;10.02;;;;;;;;;;4965104;28;20089;-77
2023/09/25 05:07:55;;;;;;;11.35;10.18;;;;;;;;;;4967800;28;20043;-77
2023/09/25 05:10:27;;;;;;;11.45;10.45;;;;;;;;;;4961892;28;20050;-77
2023/09/25 05:12:54;;;;;;;12.00;10.90;;;;;;;;;;4963450;28;20049;-76
2023/09/25 05:15:20;;;;;;;11.13;10.27;;;;;;;;;;4963317;28;20397;-78
2023/09/25 05:17:47;;;;;;;11.30;10.30;;;;;;;;;;4994589;28;20045;-76
2023/09/25 05:20:16;;;;;;;11.68;10.68;;;;;;;;;;4979368;28;20566;-78
2023/09/25 05:22:44;;;;;;;11.15;10.15;;;;;;;;;;4961116;28;20034;-78
2023/09/25 05:25:11;;;;;;;11.55;10.27;;;;;;;;;;4963612;28;20463;-77
2023/09/25 05:27:38;;;;;;;11.70;10.70;;;;;;;;;;4992750;28;20045;-78
2023/09/25 05:30:05;;;;;;;11.48;10.48;;;;;;;;;;4963918;28;20092;-75
2023/09/25 05:32:34;;;;;;;11.32;10.32;;;;;;;;;;4963684;28;20405;-76
2023/09/25 05:35:00;;;;;;;11.38;10.35;;;;;;;;;;4962056;28;20126;-76
2023/09/25 05:37:25;;;;;;;11.05;10.15;;;;;;;;;;4963549;28;20130;-77
2023/09/25 05:39:51;;;;;;;11.70;10.70;;;;;;;;;;4963470;28;20535;-74
2023/09/25 05:42:16;;;;;;;11.38;10.38;;;;;;;;;;4964800;28;20053;-78
2023/09/25 05:44:42;;;;;;;10.65;9.73;;;;;;;;;;4963904;28;20035;-77
2023/09/25 05:47:08;;;;;;;11.15;10.02;;;;;;;;;;4963421;28;20030;-76
2023/09/25 05:49:33;;;;;;;10.65;9.82;;;;;;;;;;4964418;28;20038;-77
2023/09/25 05:51:59;;;;;;;10.73;9.75;;;;;;;;;;4993497;28;20089;-77
2023/09/25 05:54:24;;;;;;;10.52;9.55;;;;;;;;;;4964475;28;20039;-77
2023/09/25 05:56:50;;;;;;;11.48;10.20;;;;;;;;;;4979256;28;20106;-77
2023/09/25 05:59:16;;;;;;;11.13;10.00;;;;;;;;;;4969087;28;20045;-77
2023/09/25 06:01:42;;;;;;;11.15;10.15;;;;;;;;;;4963767;28;20161;-78
2023/09/25 06:04:09;;;;;;;11.60;10.18;;;;;;;;;;4965745;28;20046;-76
2023/09/25 06:06:35;;;;;;;11.68;10.55;;;;;;;;;;4968415;28;20027;-76
2023/09/25 06:09:02;;;;;;;11.52;10.15;;;;;;;;;;4965532;28;20431;-77
2023/09/25 06:11:28;;;;;;;10.75;9.85;;;;;;;;;;4968653;28;20039;-77
2023/09/25 06:13:53;;;;;;;11.15;10.25;;;;;;;;;;4974296;28;20042;-76
2023/09/25 06:16:19;;;;;;;10.13;9.13;;;;;;;;;;4966012;28;20038;-75
2023/09/25 06:18:45;;;;;;;12.00;10.60;;;;;;;;;;4965566;28;20039;-76
2023/09/25 06:21:13;;;;;;;11.63;10.57;;;;;;;;;;4966315;28;20034;-76
2023/09/25 06:23:39;;;;;;;13.32;10.82;;;;;;;;;;4961550;28;20043;-77
2023/09/25 06:26:06;;;;;;;12.23;11.10;;;;;;;;;;4965875;28;20035;-76
2023/09/25 06:28:32;;;;;;;13.55;11.27;;;;;;;;;;4967265;28;20440;-78
2023/09/25 06:30:59;;;;;;;16.92;11.32;;;;;;;;;;4966569;28;20047;-76
2023/09/25 06:33:25;;;;;;;15.02;11.95;;;;;;;;;;4964474;28;20045;-76
2023/09/25 06:35:52;;;;;;;13.80;12.40;;;;;;;;;;4967296;28;20440;-76
2023/09/25 06:38:18;;;;;;;15.05;12.32;;;;;;;;;;4963484;28;20733;-77
2023/09/25 06:40:44;;;;;;;13.60;12.27;;;;;;;;;;4963135;28;20279;-77
2023/09/25 06:43:10;;;;;;;14.20;12.68;;;;;;;;;;4965767;28;20512;-75
2023/09/25 06:45:36;;;;;;;15.85;11.98;;;;;;;;;;4967351;28;20030;-78
2023/09/25 06:48:01;;;;;;;17.67;12.65;;;;;;;;;;4965573;28;20045;-77
2023/09/25 06:50:27;;;;;;;15.38;12.35;;;;;;;;;;4966789;28;20038;-78
2023/09/25 06:52:53;;;;;;;16.10;12.30;;;;;;;;;;4965392;28;20041;-76
2023/09/25 06:55:18;;;;;;;17.58;12.43;;;;;;;;;;4965597;28;20751;-77
2023/09/25 06:57:44;;;;;;;15.38;13.13;;;;;;;;;;4964294;28;20053;-76
2023/09/25 07:00:10;;;;;;;20.67;13.35;;;;;;;;;;4967081;28;20504;-76
2023/09/25 07:02:36;;;;;;;16.02;12.82;;;;;;;;;;4967012;28;20034;-76
2023/09/25 07:05:02;;;;;;;14.68;12.05;;;;;;;;;;4963847;28;20045;-76
2023/09/25 07:07:28;;;;;;;19.55;13.52;;;;;;;;;;4964897;28;20034;-76
2023/09/25 07:09:54;;;;;;;17.63;13.10;;;;;;;;;;4964847;28;20412;-75
2023/09/25 07:12:19;;;;;;;13.43;11.63;;;;;;;;;;4964056;28;20035;-75
2023/09/25 07:14:51;;;;;;;14.35;12.20;;;;;;;;;;4964127;28;20488;-75
2023/09/25 07:17:17;;;;;;;18.88;11.80;;;;;;;;;;4963722;28;20045;-75
2023/09/25 07:19:43;;;;;;;11.90;10.77;;;;;;;;;;4964778;28;20042;-76
2023/09/25 07:22:08;;;;;;;13.27;11.90;;;;;;;;;;4965890;28;20037;-76
2023/09/25 07:24:34;;;;;;;13.27;12.00;;;;;;;;;;4966356;28;20038;-76
2023/09/25 07:26:59;;;;;;;12.98;11.73;;;;;;;;;;4966941;28;20106;-76
2023/09/25 07:29:25;;;;;;;14.57;11.77;;;;;;;;;;4996392;28;20066;-76
2023/09/25 07:31:51;;;;;;;17.55;12.35;;;;;;;;;;4964572;28;20500;-75
2023/09/25 07:34:17;;;;;;;19.17;11.75;;;;;;;;;;4966241;28;20057;-76
2023/09/25 07:36:42;;;;;;;13.05;11.35;;;;;;;;;;4966705;28;20038;-76
2023/09/25 07:39:13;;;;;;;13.65;12.25;;;;;;;;;;4965963;28;20031;-76
2023/09/25 07:41:40;;;;;;;14.60;11.90;;;;;;;;;;4966610;28;20038;-77
2023/09/25 07:44:11;;;;;;;13.57;11.85;;;;;;;;;;4996193;28;20042;-76
2023/09/25 07:46:38;;;;;;;17.35;12.27;;;;;;;;;;4965888;28;20039;-76
2023/09/25 07:49:05;;;;;;;12.98;11.15;;;;;;;;;;4963773;28;20113;-76
2023/09/25 07:51:32;;;;;;;12.48;11.18;;;;;;;;;;4965944;28;20039;-76
2023/09/25 07:53:58;;;;;;;13.05;11.80;;;;;;;;;;4966126;28;20093;-76
2023/09/25 07:56:24;;;;;;;14.43;11.75;;;;;;;;;;4966489;28;20039;-76
2023/09/25 07:58:50;;;;;;;13.95;11.90;;;;;;;;;;4963593;28;20054;-76
2023/09/25 08:01:16;;;;;;;16.67;11.30;;;;;;;;;;4976851;28;20167;-74
2023/09/25 08:03:43;;;;;;;13.98;12.50;;;;;;;;;;4962360;28;20436;-76
2023/09/25 08:06:11;;;;;;;15.00;11.70;;;;;;;;;;4964195;28;20034;-76
2023/09/25 08:08:37;;;;;;;15.38;11.80;;;;;;;;;;4965054;28;20030;-76
2023/09/25 08:11:02;;;;;;;13.75;11.02;;;;;;;;;;4965690;28;20109;-76
2023/09/25 08:13:29;;;;;;;18.17;11.40;;;;;;;;;;4965728;28;20467;-76
2023/09/25 08:15:55;;;;;;;13.88;10.10;;;;;;;;;;4978083;28;20045;-76
2023/09/25 08:18:20;;;;;;;11.52;10.38;;;;;;;;;;4995908;28;20452;-76
2023/09/25 08:20:46;;;;;;;12.57;10.00;;;;;;;;;;4966101;28;20035;-76
2023/09/25 08:23:12;;;;;;;15.40;10.35;;;;;;;;;;4962331;28;20055;-74
2023/09/25 08:25:37;;;;;;;13.60;10.68;;;;;;;;;;4964301;28;20112;-76
2023/09/25 08:28:03;;;;;;;17.45;10.38;;;;;;;;;;4980038;28;20074;-74
2023/09/25 08:30:29;;;;;;;10.63;9.63;;;;;;;;;;4966730;28;20035;-74
2023/09/25 08:32:54;;;;;;;12.90;10.18;;;;;;;;;;4964979;28;20038;-76
2023/09/25 08:35:20;;;;;;;10.98;9.25;;;;;;;;;;4965197;28;20037;-75
2023/09/25 08:37:45;;;;;;;11.00;9.80;;;;;;;;;;4965992;28;20062;-74
2023/09/25 08:40:11;;;;;;;9.75;8.95;;;;;;;;;;4980993;28;21649;-77
2023/09/25 08:42:39;;;;;;;9.93;8.98;;;;;;;;;;4965468;28;20055;-74
2023/09/25 08:45:05;;;;;;;9.50;8.60;;;;;;;;;;4964580;28;20031;-76
2023/09/25 08:47:34;;;;;;;10.77;9.70;;;;;;;;;;4965486;28;20656;-75
2023/09/25 08:50:00;;;;;;;12.77;8.70;;;;;;;;;;4979330;28;20034;-75
2023/09/25 08:52:27;;;;;;;9.80;7.90;;;;;;;;;;4965565;28;20043;-75
2023/09/25 08:54:53;;;;;;;9.70;8.70;;;;;;;;;;4965050;28;20352;-75
2023/09/25 08:57:19;;;;;;;8.73;8.02;;;;;;;;;;4967392;28;20054;-75
2023/09/25 08:59:47;;;;;;;8.38;7.68;;;;;;;;;;4968100;28;20062;-76
2023/09/25 09:02:13;;;;;;;8.57;7.75;;;;;;;;;;4968783;28;20037;-75
2023/09/25 09:04:39;;;;;;;9.20;7.97;;;;;;;;;;4966198;28;20058;-75
2023/09/25 09:07:07;;;;;;;8.90;7.93;;;;;;;;;;5001786;28;20052;-75
2023/09/25 09:09:34;;;;;;;9.27;7.50;;;;;;;;;;4966897;28;20346;-75
2023/09/25 09:12:00;;;;;;;8.10;7.30;;;;;;;;;;4981645;28;20121;-75
2023/09/25 09:14:37;;;;;;;8.68;7.30;;;;;;;;;;4965878;28;20133;-75
2023/09/25 09:17:06;;;;;;;8.75;8.00;;;;;;;;;;4980502;28;20039;-76
2023/09/25 09:19:49;;;;;;;10.63;7.97;;;;;;;;;;4980370;28;20042;-76
2023/09/25 09:22:16;;;;;;;8.60;7.90;;;;;;;;;;4965490;28;20400;-75
2023/09/25 09:24:44;;;;;;;9.23;8.27;;;;;;;;;;4962344;28;20089;-75
2023/09/25 09:27:11;;;;;;;9.25;8.35;;;;;;;;;;4968219;28;20050;-75
2023/09/25 09:29:44;;;;;;;8.65;7.85;;;;;;;;;;4965198;28;20035;-75
2023/09/25 09:32:11;;;;;;;9.05;8.10;;;;;;;;;;4962378;28;20069;-75
2023/09/25 09:34:41;;;;;;;8.85;8.05;;;;;;;;;;4960752;28;20047;-76
2023/09/25 09:37:12;;;;;;;8.02;7.32;;;;;;;;;;4965702;28;20117;-75
2023/09/25 09:39:40;;;;;;;8.00;7.30;;;;;;;;;;4965095;28;20093;-76
2023/09/25 09:42:08;;;;;;;8.55;7.65;;;;;;;;;;4968881;28;20030;-75
2023/09/25 09:44:35;;;;;;;8.13;7.40;;;;;;;;;;4968429;28;20581;-75
2023/09/25 09:47:03;;;;;;;8.38;7.57;;;;;;;;;;4967802;28;20471;-75
2023/09/25 09:49:32;;;;;;;8.80;8.00;;;;;;;;;;4968274;28;20515;-75
2023/09/25 09:52:00;;;;;;;8.52;7.57;;;;;;;;;;4967002;28;20525;-76
2023/09/25 09:54:30;;;;;;;8.43;7.70;;;;;;;;;;4967714;28;20038;-75
2023/09/25 09:56:59;;;;;;;8.52;7.80;;;;;;;;;;4966450;28;20444;-75
2023/09/25 09:59:25;;;;;;;8.73;7.97;;;;;;;;;;4967645;28;20042;-76
2023/09/25 10:01:51;;;;;;;8.00;7.40;;;;;;;;;;4969877;28;20031;-76
2023/09/25 10:04:16;;;;;;;8.15;7.45;;;;;;;;;;4982509;28;20038;-76
2023/09/25 10:06:48;;;;;;;9.02;7.10;;;;;;;;;;4967577;28;20058;-75
2023/09/25 10:09:15;;;;;;;7.85;7.25;;;;;;;;;;4966166;28;20046;-76
2023/09/25 10:11:48;;;;;;;7.70;7.00;;;;;;;;;;4969165;28;20039;-75
2023/09/25 10:14:20;;;;;;;11.65;7.18;;;;;;;;;;4966124;28;20567;-75
2023/09/25 10:17:02;;;;;;;7.50;6.80;;;;;;;;;;4966514;28;20455;-76
2023/09/25 10:19:53;;;;;;;7.93;7.15;;;;;;;;;;4967700;28;20373;-76
2023/09/25 10:22:20;;;;;;;7.80;7.20;;;;;;;;;;4970369;28;20393;-75
2023/09/25 10:25:05;;;;;;;8.25;7.10;;;;;;;;;;4966840;28;20492;-75
2023/09/25 10:27:34;;;;;;;7.38;6.72;;;;;;;;;;4982387;28;20596;-75
2023/09/25 10:30:13;;;;;;;8.40;7.65;;;;;;;;;;4969855;28;20038;-75
2023/09/25 10:32:51;;;;;;;7.72;6.70;;;;;;;;;;4962317;28;20151;-74
2023/09/25 10:35:36;;;;;;;7.88;7.25;;;;;;;;;;4995263;28;20170;-75
2023/09/25 10:38:13;;;;;;;7.70;7.00;;;;;;;;;;4997581;28;20122;-73
2023/09/25 10:40:49;;;;;;;7.78;7.15;;;;;;;;;;4965150;28;20051;-75
2023/09/25 10:43:20;;;;;;;7.30;6.70;;;;;;;;;;4969173;28;20026;-75
2023/09/25 10:45:46;;;;;;;7.55;6.95;;;;;;;;;;4959603;28;20045;-75
2023/09/25 10:48:13;;;;;;;7.70;6.97;;;;;;;;;;4963153;28;20039;-75
2023/09/25 10:50:40;;;;;;;7.45;6.85;;;;;;;;;;4959829;28;20045;-75
2023/09/25 10:53:07;;;;;;;9.25;7.95;;;;;;;;;;4963452;28;20089;-75
2023/09/25 10:55:34;;;;;;;8.45;7.65;;;;;;;;;;4963257;28;20097;-75
2023/09/25 10:58:01;;;;;;;7.70;6.88;;;;;;;;;;4993531;28;20039;-75
2023/09/25 11:00:27;;;;;;;7.30;6.70;;;;;;;;;;4963100;28;20039;-75
2023/09/25 11:02:53;;;;;;;7.30;6.60;;;;;;;;;;4963057;28;20532;-75
2023/09/25 11:05:21;;;;;;;7.70;7.00;;;;;;;;;;4963490;28;20066;-75
2023/09/25 11:07:47;;;;;;;8.43;7.75;;;;;;;;;;4969622;28;20031;-76
2023/09/25 11:10:13;;;;;;;7.60;7.00;;;;;;;;;;4980946;28;20112;-74
2023/09/25 11:12:40;;;;;;;7.35;6.70;;;;;;;;;;4965974;28;20513;-75
2023/09/25 11:15:11;;;;;;;7.78;7.10;;;;;;;;;;4967311;28;20069;-75
2023/09/25 11:17:39;;;;;;;8.82;7.10;;;;;;;;;;4963887;28;20045;-74
2023/09/25 11:20:11;;;;;;;7.32;6.72;;;;;;;;;;4963481;28;20035;-75
2023/09/25 11:22:41;;;;;;;7.43;6.93;;;;;;;;;;4964446;28;20042;-74
2023/09/25 11:25:17;;;;;;;8.25;7.00;;;;;;;;;;4962426;28;20030;-75
2023/09/25 11:27:56;;;;;;;7.57;6.97;;;;;;;;;;4963952;28;20202;-74
2023/09/25 11:30:27;;;;;;;8.25;6.82;;;;;;;;;;4963293;28;20117;-76
2023/09/25 11:32:53;;;;;;;8.00;7.40;;;;;;;;;;4962116;28;20046;-77
2023/09/25 11:35:20;;;;;;;7.45;6.85;;;;;;;;;;4961581;28;20038;-76
2023/09/25 11:38:00;;;;;;;7.45;6.85;;;;;;;;;;4978704;28;20089;-75
2023/09/25 11:40:26;;;;;;;7.40;6.80;;;;;;;;;;4962949;28;20042;-75
2023/09/25 11:42:52;;;;;;;7.63;7.03;;;;;;;;;;4964653;28;20031;-76
2023/09/25 11:45:19;;;;;;;7.38;6.80;;;;;;;;;;4961381;28;20041;-76
2023/09/25 11:47:45;;;;;;;7.57;6.88;;;;;;;;;;4957430;28;20043;-76
2023/09/25 11:50:13;;;;;;;7.68;7.07;;;;;;;;;;4973684;28;20042;-78
2023/09/25 11:52:41;;;;;;;7.90;7.10;;;;;;;;;;4963220;28;20097;-75
2023/09/25 11:55:16;;;;;;;8.68;7.50;;;;;;;;;;4961066;28;20133;-76
2023/09/25 11:57:42;;;;;;;7.80;7.28;;;;;;;;;;4976459;28;20039;-75
2023/09/25 12:00:10;;;;;;;8.30;7.60;;;;;;;;;;4979094;28;20041;-76
2023/09/25 12:02:43;;;;;;;8.30;7.60;;;;;;;;;;4969287;28;20109;-77
2023/09/25 12:05:09;;;;;;;8.65;7.82;;;;;;;;;;4964069;28;20038;-76
2023/09/25 12:07:36;;;;;;;8.90;8.20;;;;;;;;;;4964612;28;20034;-77
2023/09/25 12:10:06;;;;;;;8.68;8.07;;;;;;;;;;4962975;28;20093;-78
2023/09/25 12:12:35;;;;;;;8.52;7.93;;;;;;;;;;4961822;28;20125;-76
2023/09/25 12:15:03;;;;;;;8.90;8.05;;;;;;;;;;4960260;28;20069;-77
2023/09/25 12:17:30;;;;;;;8.43;7.78;;;;;;;;;;4961601;28;20690;-77
2023/09/25 12:20:11;;;;;;;8.57;7.88;;;;;;;;;;4960170;28;20382;-76
2023/09/25 12:22:40;;;;;;;8.52;7.82;;;;;;;;;;4976073;28;20027;-75
2023/09/25 12:25:11;;;;;;;8.65;7.95;;;;;;;;;;4962294;28;20703;-77
2023/09/25 12:27:41;;;;;;;8.90;8.20;;;;;;;;;;4961877;28;20038;-75
2023/09/25 12:30:16;;;;;;;8.52;7.93;;;;;;;;;;4963564;28;20749;-76
2023/09/25 12:32:43;;;;;;;8.52;7.80;;;;;;;;;;4956021;28;20489;-74
2023/09/25 12:35:15;;;;;;;8.60;8.00;;;;;;;;;;4962584;28;20102;-74
2023/09/25 12:37:46;;;;;;;8.60;7.80;;;;;;;;;;4959732;28;20049;-77
2023/09/25 12:40:13;;;;;;;8.25;7.75;;;;;;;;;;4943485;28;20124;-75
2023/09/25 12:42:40;;;;;;;8.35;7.82;;;;;;;;;;4956949;28;20544;-74
2023/09/25 12:45:06;;;;;;;8.23;7.65;;;;;;;;;;4969236;28;20125;-73
2023/09/25 12:47:32;;;;;;;8.15;7.65;;;;;;;;;;4986876;28;20038;-75
2023/09/25 12:49:58;;;;;;;9.10;8.40;;;;;;;;;;4971547;28;20522;-74
2023/09/25 12:52:24;;;;;;;8.70;8.10;;;;;;;;;;4960872;28;20041;-74
2023/09/25 12:54:50;;;;;;;9.52;8.60;;;;;;;;;;4970246;28;20452;-73
2023/09/25 12:57:17;;;;;;;9.23;8.63;;;;;;;;;;4958733;28;20043;-74
2023/09/25 12:59:46;;;;;;;9.15;8.55;;;;;;;;;;4962303;28;20063;-74
2023/09/25 13:02:11;;;;;;;9.10;8.50;;;;;;;;;;4960688;28;20122;-74
2023/09/25 13:04:37;;;;;;;8.90;8.30;;;;;;;;;;4961128;28;20213;-74
2023/09/25 13:07:03;;;;;;;9.38;8.68;;;;;;;;;;4964823;28;20066;-75
2023/09/25 13:09:29;;;;;;;9.05;8.35;;;;;;;;;;4960748;28;20152;-75
2023/09/25 13:11:54;;;;;;;9.10;8.40;;;;;;;;;;4964300;28;20105;-75
2023/09/25 13:14:20;;;;;;;8.70;8.10;;;;;;;;;;4967162;28;20048;-75
2023/09/25 13:16:48;;;;;;;8.60;8.10;;;;;;;;;;4966866;28;20583;-74
2023/09/25 13:19:14;;;;;;;8.57;7.97;;;;;;;;;;4965836;28;20074;-75
2023/09/25 13:21:39;;;;;;;8.80;8.20;;;;;;;;;;4968136;28;20128;-74
2023/09/25 13:24:05;;;;;;;8.55;7.95;;;;;;;;;;4969185;28;20042;-74
2023/09/25 13:26:31;;;;;;;9.00;8.40;;;;;;;;;;4987264;28;20045;-74
2023/09/25 13:28:57;;;;;;;8.50;8.00;;;;;;;;;;4966949;28;20030;-73
2023/09/25 13:31:24;;;;;;;8.80;8.20;;;;;;;;;;4968927;28;20043;-74
2023/09/25 13:33:50;;;;;;;8.65;8.05;;;;;;;;;;4983463;28;20034;-75
2023/09/25 13:36:16;;;;;;;8.35;7.85;;;;;;;;;;4968458;28;20045;-74
2023/09/25 13:38:42;;;;;;;8.70;8.20;;;;;;;;;;4968445;28;20460;-75
2023/09/25 13:41:12;;;;;;;8.90;8.30;;;;;;;;;;4968199;28;20412;-75
2023/09/25 13:43:43;;;;;;;8.80;8.20;;;;;;;;;;4985581;28;20066;-75
2023/09/25 13:46:09;;;;;;;8.20;7.70;;;;;;;;;;4982259;28;20580;-75
2023/09/25 13:48:35;;;;;;;8.50;8.00;;;;;;;;;;4966695;28;20102;-75
2023/09/25 13:51:06;;;;;;;8.82;8.13;;;;;;;;;;4961950;28;20512;-75
2023/09/25 13:53:36;;;;;;;8.90;8.30;;;;;;;;;;4964568;28;20039;-75
2023/09/25 13:56:02;;;;;;;8.75;8.20;;;;;;;;;;4994444;28;20085;-75
2023/09/25 13:58:28;;;;;;;8.10;7.60;;;;;;;;;;4966716;28;20111;-74
2023/09/25 14:00:55;;;;;;;8.80;8.30;;;;;;;;;;4962933;28;20663;-76
2023/09/25 14:03:22;;;;;;;8.60;8.00;;;;;;;;;;4963887;28;20038;-75
2023/09/25 14:05:48;;;;;;;8.90;8.30;;;;;;;;;;4966394;28;20404;-76
2023/09/25 14:08:13;;;;;;;8.68;8.10;;;;;;;;;;4966357;28;21569;-73
2023/09/25 14:10:39;;;;;;;9.25;8.65;;;;;;;;;;4962559;28;20041;-74
2023/09/25 14:13:06;;;;;;;9.30;8.43;;;;;;;;;;4965850;28;20042;-76
2023/09/25 14:15:33;;;;;;;8.82;8.25;;;;;;;;;;4966613;28;20070;-75
2023/09/25 14:17:58;;;;;;;9.05;8.45;;;;;;;;;;4968113;28;20070;-76
2023/09/25 14:20:24;;;;;;;9.02;8.43;;;;;;;;;;4967076;28;20074;-75
2023/09/25 14:22:50;;;;;;;8.50;8.00;;;;;;;;;;4967066;28;20102;-76
2023/09/25 14:25:16;;;;;;;9.35;8.75;;;;;;;;;;4994732;28;20050;-76
2023/09/25 14:27:42;;;;;;;9.00;8.35;;;;;;;;;;4966482;28;20066;-76
2023/09/25 14:30:08;;;;;;;9.40;8.65;;;;;;;;;;4963070;28;20043;-76
2023/09/25 14:32:33;;;;;;;8.80;8.30;;;;;;;;;;4967911;28;20039;-76
2023/09/25 14:35:00;;;;;;;9.30;8.52;;;;;;;;;;4965845;28;20092;-76
2023/09/25 14:37:25;;;;;;;9.30;8.50;;;;;;;;;;4967617;28;20042;-76